sensor_id;sensor_type;location;lat;lon;timestamp;pressure;altitude;pressure_sealevel;temperature
50206;BMP280;36098;48.390;10.856;2023-03-15T00:00:53;95329.34;;;22.23
50206;BMP280;36098;48.390;10.856;2023-03-15T00:03:19;95346.97;;;22.23
50206;BMP280;36098;48.390;10.856;2023-03-15T00:05:45;95354.00;;;22.27
50206;BMP280;36098;48.390;10.856;2023-03-15T00:08:11;95353.50;;;22.25
50206;BMP280;36098;48.390;10.856;2023-03-15T00:10:43;95350.19;;;22.20
50206;BMP280;36098;48.390;10.856;2023-03-15T00:13:08;95361.19;;;22.22
50206;BMP280;36098;48.390;10.856;2023-03-15T00:15:34;95361.69;;;22.24
50206;BMP280;36098;48.390;10.856;2023-03-15T00:17:59;95358.59;;;22.17
50206;BMP280;36098;48.390;10.856;2023-03-15T00:20:27;95362.03;;;22.17
50206;BMP280;36098;48.390;10.856;2023-03-15T00:22:52;95361.69;;;22.24
50206;BMP280;36098;48.390;10.856;2023-03-15T00:25:17;95363.31;;;22.20
50206;BMP280;36098;48.390;10.856;2023-03-15T00:27:42;95366.16;;;22.23
50206;BMP280;36098;48.390;10.856;2023-03-15T00:30:08;95362.59;;;22.14
50206;BMP280;36098;48.390;10.856;2023-03-15T00:32:33;95369.19;;;22.12
50206;BMP280;36098;48.390;10.856;2023-03-15T00:34:58;95373.44;;;22.08
50206;BMP280;36098;48.390;10.856;2023-03-15T00:37:23;95374.44;;;22.12
50206;BMP280;36098;48.390;10.856;2023-03-15T00:39:49;95370.97;;;22.16
50206;BMP280;36098;48.390;10.856;2023-03-15T00:42:15;95373.09;;;22.14
50206;BMP280;36098;48.390;10.856;2023-03-15T00:44:43;95366.06;;;22.10
50206;BMP280;36098;48.390;10.856;2023-03-15T00:47:09;95371.25;;;22.15
50206;BMP280;36098;48.390;10.856;2023-03-15T00:49:34;95379.69;;;22.12
50206;BMP280;36098;48.390;10.856;2023-03-15T00:51:59;95383.69;;;22.09
50206;BMP280;36098;48.390;10.856;2023-03-15T00:54:25;95380.53;;;22.07
50206;BMP280;36098;48.390;10.856;2023-03-15T00:56:50;95378.69;;;22.08
50206;BMP280;36098;48.390;10.856;2023-03-15T00:59:15;95384.19;;;22.11
50206;BMP280;36098;48.390;10.856;2023-03-15T01:01:40;95383.91;;;22.13
50206;BMP280;36098;48.390;10.856;2023-03-15T01:04:08;95384.47;;;22.10
50206;BMP280;36098;48.390;10.856;2023-03-15T01:06:35;95391.56;;;22.09
50206;BMP280;36098;48.390;10.856;2023-03-15T01:09:01;95379.75;;;22.07
50206;BMP280;36098;48.390;10.856;2023-03-15T01:11:26;95374.50;;;22.07
50206;BMP280;36098;48.390;10.856;2023-03-15T01:13:52;95374.50;;;22.07
50206;BMP280;36098;48.390;10.856;2023-03-15T01:16:18;95380.88;;;22.01
50206;BMP280;36098;48.390;10.856;2023-03-15T01:18:43;95389.78;;;22.05
50206;BMP280;36098;48.390;10.856;2023-03-15T01:21:09;95396.59;;;22.06
50206;BMP280;36098;48.390;10.856;2023-03-15T01:23:34;95400.28;;;22.05
50206;BMP280;36098;48.390;10.856;2023-03-15T01:26:00;95405.03;;;22.03
50206;BMP280;36098;48.390;10.856;2023-03-15T01:28:26;95410.88;;;22.00
50206;BMP280;36098;48.390;10.856;2023-03-15T01:30:51;95414.25;;;22.00
50206;BMP280;36098;48.390;10.856;2023-03-15T01:33:17;95415.81;;;22.01
50206;BMP280;36098;48.390;10.856;2023-03-15T01:35:42;95421.91;;;21.97
50206;BMP280;36098;48.390;10.856;2023-03-15T01:38:07;95430.59;;;21.97
50206;BMP280;36098;48.390;10.856;2023-03-15T01:40:33;95441.09;;;21.97
50206;BMP280;36098;48.390;10.856;2023-03-15T01:48:10;95484.28;;;21.91
50206;BMP280;36098;48.390;10.856;2023-03-15T01:50:35;95494.50;;;21.93
50206;BMP280;36098;48.390;10.856;2023-03-15T01:53:00;95498.75;;;21.89
50206;BMP280;36098;48.390;10.856;2023-03-15T01:55:25;95501.66;;;21.82
50206;BMP280;36098;48.390;10.856;2023-03-15T01:57:52;95500.63;;;21.83
50206;BMP280;36098;48.390;10.856;2023-03-15T02:00:20;95508.69;;;21.92
50206;BMP280;36098;48.390;10.856;2023-03-15T02:02:46;95501.38;;;21.89
50206;BMP280;36098;48.390;10.856;2023-03-15T02:05:14;95527.19;;;21.82
50206;BMP280;36098;48.390;10.856;2023-03-15T02:07:41;95546.06;;;21.89
50206;BMP280;36098;48.390;10.856;2023-03-15T02:10:14;95555.47;;;21.95
50206;BMP280;36098;48.390;10.856;2023-03-15T02:12:44;95555.47;;;21.95
50206;BMP280;36098;48.390;10.856;2023-03-15T02:15:10;95569.47;;;21.85
50206;BMP280;36098;48.390;10.856;2023-03-15T02:17:43;95573.88;;;21.95
50206;BMP280;36098;48.390;10.856;2023-03-15T02:25:11;95569.72;;;21.89
50206;BMP280;36098;48.390;10.856;2023-03-15T02:27:39;95577.59;;;21.89
50206;BMP280;36098;48.390;10.856;2023-03-15T02:30:05;95584.72;;;21.83
50206;BMP280;36098;48.390;10.856;2023-03-15T02:32:31;95599.13;;;21.91
50206;BMP280;36098;48.390;10.856;2023-03-15T02:34:56;95606.81;;;21.82
50206;BMP280;36098;48.390;10.856;2023-03-15T02:37:21;95608.16;;;21.80
50206;BMP280;36098;48.390;10.856;2023-03-15T02:39:46;95622.31;;;21.79
50206;BMP280;36098;48.390;10.856;2023-03-15T02:42:12;95625.53;;;21.71
50206;BMP280;36098;48.390;10.856;2023-03-15T02:44:38;95643.13;;;21.75
50206;BMP280;36098;48.390;10.856;2023-03-15T02:47:04;95644.44;;;21.73
50206;BMP280;36098;48.390;10.856;2023-03-15T02:49:30;95654.66;;;21.79
50206;BMP280;36098;48.390;10.856;2023-03-15T02:51:56;95656.50;;;21.74
50206;BMP280;36098;48.390;10.856;2023-03-15T02:54:21;95660.47;;;21.76
50206;BMP280;36098;48.390;10.856;2023-03-15T02:56:47;95677.28;;;21.75
50206;BMP280;36098;48.390;10.856;2023-03-15T02:59:12;95689.09;;;21.78
50206;BMP280;36098;48.390;10.856;2023-03-15T03:01:37;95698.03;;;21.77
50206;BMP280;36098;48.390;10.856;2023-03-15T03:04:02;95697.22;;;21.81
50206;BMP280;36098;48.390;10.856;2023-03-15T03:06:28;95701.19;;;21.74
50206;BMP280;36098;48.390;10.856;2023-03-15T03:08:53;95711.19;;;21.72
50206;BMP280;36098;48.390;10.856;2023-03-15T03:11:18;95718.53;;;21.80
50206;BMP280;36098;48.390;10.856;2023-03-15T03:13:43;95722.22;;;21.74
50206;BMP280;36098;48.390;10.856;2023-03-15T03:16:09;95732.25;;;21.67
50206;BMP280;36098;48.390;10.856;2023-03-15T03:18:34;95739.59;;;21.65
50206;BMP280;36098;48.390;10.856;2023-03-15T03:21:00;95742.22;;;21.70
50206;BMP280;36098;48.390;10.856;2023-03-15T03:23:26;95745.88;;;21.74
50206;BMP280;36098;48.390;10.856;2023-03-15T03:25:52;95757.72;;;21.71
50206;BMP280;36098;48.390;10.856;2023-03-15T03:28:18;95764.28;;;21.69
50206;BMP280;36098;48.390;10.856;2023-03-15T03:30:43;95764.81;;;21.66
50206;BMP280;36098;48.390;10.856;2023-03-15T03:33:08;95779.03;;;21.65
50206;BMP280;36098;48.390;10.856;2023-03-15T03:35:33;95783.75;;;21.68
50206;BMP280;36098;48.390;10.856;2023-03-15T03:37:58;95788.97;;;21.73
50206;BMP280;36098;48.390;10.856;2023-03-15T03:40:23;95792.94;;;21.70
50206;BMP280;36098;48.390;10.856;2023-03-15T03:42:49;95798.47;;;21.64
50206;BMP280;36098;48.390;10.856;2023-03-15T03:45:14;95806.31;;;21.59
50206;BMP280;36098;48.390;10.856;2023-03-15T03:47:39;95815.81;;;21.65
50206;BMP280;36098;48.390;10.856;2023-03-15T03:50:04;95812.91;;;21.71
50206;BMP280;36098;48.390;10.856;2023-03-15T03:52:30;95825.50;;;21.74
50206;BMP280;36098;48.390;10.856;2023-03-15T03:54:55;95826.31;;;21.65
50206;BMP280;36098;48.390;10.856;2023-03-15T03:57:20;95826.56;;;21.68
50206;BMP280;36098;48.390;10.856;2023-03-15T03:59:45;95822.59;;;21.56
50206;BMP280;36098;48.390;10.856;2023-03-15T04:02:10;95832.63;;;21.64
50206;BMP280;36098;48.390;10.856;2023-03-15T04:04:36;95833.41;;;21.64
50206;BMP280;36098;48.390;10.856;2023-03-15T04:07:01;95839.97;;;21.67
50206;BMP280;36098;48.390;10.856;2023-03-15T04:09:26;95848.38;;;21.69
50206;BMP280;36098;48.390;10.856;2023-03-15T04:11:51;95847.84;;;21.67
50206;BMP280;36098;48.390;10.856;2023-03-15T04:14:16;95851.50;;;21.56
50206;BMP280;36098;48.390;10.856;2023-03-15T04:16:41;95854.72;;;21.63
50206;BMP280;36098;48.390;10.856;2023-03-15T04:19:07;95853.91;;;21.62
50206;BMP280;36098;48.390;10.856;2023-03-15T04:21:32;95859.66;;;21.59
50206;BMP280;36098;48.390;10.856;2023-03-15T04:23:58;95861.78;;;21.62
50206;BMP280;36098;48.390;10.856;2023-03-15T04:26:24;95865.97;;;21.63
50206;BMP280;36098;48.390;10.856;2023-03-15T04:28:51;95868.91;;;21.62
50206;BMP280;36098;48.390;10.856;2023-03-15T04:31:16;95869.91;;;21.56
50206;BMP280;36098;48.390;10.856;2023-03-15T04:33:41;95874.63;;;21.54
50206;BMP280;36098;48.390;10.856;2023-03-15T04:36:07;95879.88;;;21.54
50206;BMP280;36098;48.390;10.856;2023-03-15T04:38:32;95880.16;;;21.52
50206;BMP280;36098;48.390;10.856;2023-03-15T04:40:59;95888.03;;;21.57
50206;BMP280;36098;48.390;10.856;2023-03-15T04:43:24;95886.19;;;21.53
50206;BMP280;36098;48.390;10.856;2023-03-15T04:45:49;95897.25;;;21.50
50206;BMP280;36098;48.390;10.856;2023-03-15T04:48:15;95914.56;;;21.51
50206;BMP280;36098;48.390;10.856;2023-03-15T04:50:40;95911.94;;;21.51
50206;BMP280;36098;48.390;10.856;2023-03-15T04:53:06;95917.19;;;21.51
50206;BMP280;36098;48.390;10.856;2023-03-15T04:55:31;95924.03;;;21.47
50206;BMP280;36098;48.390;10.856;2023-03-15T04:57:56;95920.88;;;21.45
50206;BMP280;36098;48.390;10.856;2023-03-15T05:00:22;95931.63;;;21.48
50206;BMP280;36098;48.390;10.856;2023-03-15T05:02:47;95934.28;;;21.53
50206;BMP280;36098;48.390;10.856;2023-03-15T05:05:18;95938.72;;;21.38
50206;BMP280;36098;48.390;10.856;2023-03-15T05:07:43;95936.63;;;21.35
50206;BMP280;36098;48.390;10.856;2023-03-15T05:10:09;95942.94;;;21.29
50206;BMP280;36098;48.390;10.856;2023-03-15T05:12:34;95944.50;;;21.30
50206;BMP280;36098;48.390;10.856;2023-03-15T05:14:59;95949.19;;;21.13
50206;BMP280;36098;48.390;10.856;2023-03-15T05:17:24;95971.78;;;21.14
50206;BMP280;36098;48.390;10.856;2023-03-15T05:19:49;95970.72;;;21.20
50206;BMP280;36098;48.390;10.856;2023-03-15T05:22:15;95969.72;;;21.31
50206;BMP280;36098;48.390;10.856;2023-03-15T05:24:41;95973.44;;;21.45
50206;BMP280;36098;48.390;10.856;2023-03-15T05:27:06;95979.72;;;21.59
50206;BMP280;36098;48.390;10.856;2023-03-15T05:29:31;95970.84;;;21.70
50206;BMP280;36098;48.390;10.856;2023-03-15T05:31:56;95985.03;;;21.84
50206;BMP280;36098;48.390;10.856;2023-03-15T05:34:21;95990.28;;;21.99
50206;BMP280;36098;48.390;10.856;2023-03-15T05:36:48;95997.13;;;22.05
50206;BMP280;36098;48.390;10.856;2023-03-15T05:39:14;95994.47;;;22.15
50206;BMP280;36098;48.390;10.856;2023-03-15T05:41:40;95996.06;;;22.26
50206;BMP280;36098;48.390;10.856;2023-03-15T05:44:06;95994.72;;;22.33
50206;BMP280;36098;48.390;10.856;2023-03-15T05:46:31;96005.00;;;22.40
50206;BMP280;36098;48.390;10.856;2023-03-15T05:48:56;96011.31;;;22.44
50206;BMP280;36098;48.390;10.856;2023-03-15T05:51:21;96008.91;;;22.47
50206;BMP280;36098;48.390;10.856;2023-03-15T05:53:46;96008.41;;;22.50
50206;BMP280;36098;48.390;10.856;2023-03-15T05:56:11;96018.63;;;22.57
50206;BMP280;36098;48.390;10.856;2023-03-15T05:58:37;96018.91;;;22.60
50206;BMP280;36098;48.390;10.856;2023-03-15T06:01:02;96017.31;;;22.69
50206;BMP280;36098;48.390;10.856;2023-03-15T06:03:29;96019.63;;;22.76
50206;BMP280;36098;48.390;10.856;2023-03-15T06:05:55;96023.31;;;22.85
50206;BMP280;36098;48.390;10.856;2023-03-15T06:08:20;96025.94;;;22.85
50206;BMP280;36098;48.390;10.856;2023-03-15T06:10:45;96024.09;;;22.85
50206;BMP280;36098;48.390;10.856;2023-03-15T06:13:11;96032.28;;;22.84
50206;BMP280;36098;48.390;10.856;2023-03-15T06:15:36;96033.84;;;22.85
50206;BMP280;36098;48.390;10.856;2023-03-15T06:18:01;96035.66;;;22.84
50206;BMP280;36098;48.390;10.856;2023-03-15T06:20:26;96035.44;;;22.81
50206;BMP280;36098;48.390;10.856;2023-03-15T06:22:52;96037.56;;;22.79
50206;BMP280;36098;48.390;10.856;2023-03-15T06:25:17;96034.66;;;22.75
50206;BMP280;36098;48.390;10.856;2023-03-15T06:27:42;96040.97;;;22.74
50206;BMP280;36098;48.390;10.856;2023-03-15T06:30:07;96044.91;;;22.77
50206;BMP280;36098;48.390;10.856;2023-03-15T06:32:33;96042.03;;;22.78
50206;BMP280;36098;48.390;10.856;2023-03-15T06:34:58;96039.66;;;22.77
50206;BMP280;36098;48.390;10.856;2023-03-15T06:37:23;96041.69;;;22.95
50206;BMP280;36098;48.390;10.856;2023-03-15T06:39:48;96050.59;;;23.24
50206;BMP280;36098;48.390;10.856;2023-03-15T06:42:15;96041.63;;;23.25
50206;BMP280;36098;48.390;10.856;2023-03-15T06:44:40;96044.84;;;23.02
50206;BMP280;36098;48.390;10.856;2023-03-15T06:47:06;96045.84;;;23.16
50206;BMP280;36098;48.390;10.856;2023-03-15T06:49:31;96053.16;;;23.38
50206;BMP280;36098;48.390;10.856;2023-03-15T06:51:57;96056.53;;;23.44
50206;BMP280;36098;48.390;10.856;2023-03-15T06:54:22;96054.47;;;23.36
50206;BMP280;36098;48.390;10.856;2023-03-15T06:56:48;96055.78;;;23.33
50206;BMP280;36098;48.390;10.856;2023-03-15T06:59:13;96061.16;;;23.19
50206;BMP280;36098;48.390;10.856;2023-03-15T07:01:38;96070.38;;;23.11
50206;BMP280;36098;48.390;10.856;2023-03-15T07:04:03;96066.16;;;23.10
50206;BMP280;36098;48.390;10.856;2023-03-15T07:06:28;96071.09;;;23.27
50206;BMP280;36098;48.390;10.856;2023-03-15T07:08:54;96072.09;;;23.40
50206;BMP280;36098;48.390;10.856;2023-03-15T07:11:19;96073.44;;;23.38
50206;BMP280;36098;48.390;10.856;2023-03-15T07:13:44;96075.00;;;23.39
50206;BMP280;36098;48.390;10.856;2023-03-15T07:16:10;96088.91;;;23.49
50206;BMP280;36098;48.390;10.856;2023-03-15T07:18:35;96073.63;;;23.51
50206;BMP280;36098;48.390;10.856;2023-03-15T07:21:00;96080.06;;;23.26
50206;BMP280;36098;48.390;10.856;2023-03-15T07:23:26;96089.06;;;23.10
50206;BMP280;36098;48.390;10.856;2023-03-15T07:25:52;96088.03;;;22.96
50206;BMP280;36098;48.390;10.856;2023-03-15T07:28:18;96084.63;;;22.95
50206;BMP280;36098;48.390;10.856;2023-03-15T07:30:50;96098.03;;;23.04
50206;BMP280;36098;48.390;10.856;2023-03-15T07:33:15;96097.41;;;23.36
50206;BMP280;36098;48.390;10.856;2023-03-15T07:35:41;96094.25;;;23.34
50206;BMP280;36098;48.390;10.856;2023-03-15T07:38:06;96092.69;;;23.33
50206;BMP280;36098;48.390;10.856;2023-03-15T07:40:31;96097.97;;;23.28
50206;BMP280;36098;48.390;10.856;2023-03-15T07:42:56;96100.66;;;23.19
50206;BMP280;36098;48.390;10.856;2023-03-15T07:45:21;96098.53;;;23.11
50206;BMP280;36098;48.390;10.856;2023-03-15T07:47:46;96097.00;;;23.00
50206;BMP280;36098;48.390;10.856;2023-03-15T07:50:12;96100.19;;;22.87
50206;BMP280;36098;48.390;10.856;2023-03-15T07:52:37;96111.81;;;22.66
50206;BMP280;36098;48.390;10.856;2023-03-15T07:55:02;96110.19;;;22.75
50206;BMP280;36098;48.390;10.856;2023-03-15T07:57:28;96099.66;;;22.85
50206;BMP280;36098;48.390;10.856;2023-03-15T07:59:54;96108.09;;;22.82
50206;BMP280;36098;48.390;10.856;2023-03-15T08:02:20;96111.00;;;22.65
50206;BMP280;36098;48.390;10.856;2023-03-15T08:04:45;96098.41;;;22.52
50206;BMP280;36098;48.390;10.856;2023-03-15T08:07:10;96096.00;;;22.71
50206;BMP280;36098;48.390;10.856;2023-03-15T08:09:35;96093.63;;;22.79
50206;BMP280;36098;48.390;10.856;2023-03-15T08:12:00;96095.22;;;22.70
50206;BMP280;36098;48.390;10.856;2023-03-15T08:14:26;96089.13;;;22.75
50206;BMP280;36098;48.390;10.856;2023-03-15T08:16:51;96107.59;;;22.70
50206;BMP280;36098;48.390;10.856;2023-03-15T08:19:16;96102.84;;;22.57
50206;BMP280;36098;48.390;10.856;2023-03-15T08:21:41;96090.72;;;22.76
50206;BMP280;36098;48.390;10.856;2023-03-15T08:24:09;96080.69;;;22.78
50206;BMP280;36098;48.390;10.856;2023-03-15T08:26:35;96103.66;;;22.72
50206;BMP280;36098;48.390;10.856;2023-03-15T08:29:00;96086.50;;;22.85
50206;BMP280;36098;48.390;10.856;2023-03-15T08:31:25;96087.53;;;22.94
50206;BMP280;36098;48.390;10.856;2023-03-15T08:33:50;96084.38;;;22.92
50206;BMP280;36098;48.390;10.856;2023-03-15T08:36:15;96094.13;;;22.91
50206;BMP280;36098;48.390;10.856;2023-03-15T08:38:41;96090.44;;;22.82
50206;BMP280;36098;48.390;10.856;2023-03-15T08:41:06;96106.53;;;22.56
50206;BMP280;36098;48.390;10.856;2023-03-15T08:43:31;96100.75;;;22.29
50206;BMP280;36098;48.390;10.856;2023-03-15T08:45:56;96098.38;;;22.47
50206;BMP280;36098;48.390;10.856;2023-03-15T08:48:22;96100.50;;;22.45
50206;BMP280;36098;48.390;10.856;2023-03-15T08:50:47;96101.28;;;22.26
50206;BMP280;36098;48.390;10.856;2023-03-15T08:53:13;96096.00;;;22.36
50206;BMP280;36098;48.390;10.856;2023-03-15T08:55:38;96099.44;;;22.61
50206;BMP280;36098;48.390;10.856;2023-03-15T08:58:03;96083.34;;;22.78
50206;BMP280;36098;48.390;10.856;2023-03-15T09:00:34;96102.34;;;22.45
50206;BMP280;36098;48.390;10.856;2023-03-15T09:03:00;96093.13;;;22.37
50206;BMP280;36098;48.390;10.856;2023-03-15T09:05:25;96100.22;;;22.72
50206;BMP280;36098;48.390;10.856;2023-03-15T09:07:53;96100.22;;;22.72
50206;BMP280;36098;48.390;10.856;2023-03-15T09:10:18;96104.44;;;22.58
50206;BMP280;36098;48.390;10.856;2023-03-15T09:12:46;96099.47;;;22.51
50206;BMP280;36098;48.390;10.856;2023-03-15T09:15:14;96103.63;;;22.37
50206;BMP280;36098;48.390;10.856;2023-03-15T09:17:43;96104.41;;;22.33
50206;BMP280;36098;48.390;10.856;2023-03-15T09:20:09;96109.69;;;22.28
50206;BMP280;36098;48.390;10.856;2023-03-15T09:22:38;96117.63;;;22.43
50206;BMP280;36098;48.390;10.856;2023-03-15T09:25:06;96119.72;;;22.41
50206;BMP280;36098;48.390;10.856;2023-03-15T09:27:35;96121.53;;;22.35
50206;BMP280;36098;48.390;10.856;2023-03-15T09:30:02;96121.81;;;22.59
50206;BMP280;36098;48.390;10.856;2023-03-15T09:32:30;96125.47;;;22.78
50206;BMP280;36098;48.390;10.856;2023-03-15T09:35:00;96126.56;;;22.62
50206;BMP280;36098;48.390;10.856;2023-03-15T09:37:25;96127.88;;;22.69
50206;BMP280;36098;48.390;10.856;2023-03-15T09:39:51;96131.56;;;22.68
50206;BMP280;36098;48.390;10.856;2023-03-15T09:42:18;96130.47;;;22.79
50206;BMP280;36098;48.390;10.856;2023-03-15T09:44:54;96125.94;;;23.05
50206;BMP280;36098;48.390;10.856;2023-03-15T09:50:34;96118.03;;;23.10
50206;BMP280;36098;48.390;10.856;2023-03-15T09:53:05;96119.09;;;23.14
50206;BMP280;36098;48.390;10.856;2023-03-15T09:55:39;96122.25;;;23.06
50206;BMP280;36098;48.390;10.856;2023-03-15T09:58:22;96142.59;;;22.40
50206;BMP280;36098;48.390;10.856;2023-03-15T10:00:53;96140.72;;;22.11
50206;BMP280;36098;48.390;10.856;2023-03-15T10:03:21;96147.53;;;22.02
50206;BMP280;36098;48.390;10.856;2023-03-15T10:05:53;96144.34;;;21.95
50206;BMP280;36098;48.390;10.856;2023-03-15T10:08:24;96143.34;;;22.01
50206;BMP280;36098;48.390;10.856;2023-03-15T10:11:07;96134.94;;;22.04
50206;BMP280;36098;48.390;10.856;2023-03-15T10:13:44;96139.63;;;21.97
50206;BMP280;36098;48.390;10.856;2023-03-15T10:24:10;96141.00;;;22.14
50206;BMP280;36098;48.390;10.856;2023-03-15T10:26:38;96134.13;;;22.23
50206;BMP280;36098;48.390;10.856;2023-03-15T10:29:15;96132.31;;;22.29
50206;BMP280;36098;48.390;10.856;2023-03-15T10:31:41;96132.88;;;22.51
50206;BMP280;36098;48.390;10.856;2023-03-15T10:34:09;96128.34;;;22.26
50206;BMP280;36098;48.390;10.856;2023-03-15T10:36:35;96128.88;;;22.23
50206;BMP280;36098;48.390;10.856;2023-03-15T10:39:00;96132.56;;;22.17
50206;BMP280;36098;48.390;10.856;2023-03-15T10:41:27;96132.81;;;22.16
50206;BMP280;36098;48.390;10.856;2023-03-15T10:43:59;96129.66;;;22.14
50206;BMP280;36098;48.390;10.856;2023-03-15T10:46:25;96122.56;;;22.14
50206;BMP280;36098;48.390;10.856;2023-03-15T10:48:52;96125.44;;;22.18
50206;BMP280;36098;48.390;10.856;2023-03-15T10:51:22;96122.31;;;22.21
50206;BMP280;36098;48.390;10.856;2023-03-15T10:53:59;96122.84;;;22.23
50206;BMP280;36098;48.390;10.856;2023-03-15T10:56:26;96119.16;;;22.24
50206;BMP280;36098;48.390;10.856;2023-03-15T10:58:53;96117.06;;;22.26
50206;BMP280;36098;48.390;10.856;2023-03-15T11:01:26;96121.53;;;22.35
50206;BMP280;36098;48.390;10.856;2023-03-15T11:06:58;96116.00;;;22.82
50206;BMP280;36098;48.390;10.856;2023-03-15T11:09:24;96100.44;;;22.85
50206;BMP280;36098;48.390;10.856;2023-03-15T11:11:59;96103.34;;;22.84
50206;BMP280;36098;48.390;10.856;2023-03-15T11:14:26;96098.59;;;22.91
50206;BMP280;36098;48.390;10.856;2023-03-15T11:16:56;96098.88;;;22.84
50206;BMP280;36098;48.390;10.856;2023-03-15T11:19:24;96100.94;;;22.97
50206;BMP280;36098;48.390;10.856;2023-03-15T11:21:51;96097.28;;;22.93
50206;BMP280;36098;48.390;10.856;2023-03-15T11:24:34;96095.16;;;22.95
50206;BMP280;36098;48.390;10.856;2023-03-15T11:27:01;96096.47;;;23.03
50206;BMP280;36098;48.390;10.856;2023-03-15T11:29:28;96094.34;;;23.05
50206;BMP280;36098;48.390;10.856;2023-03-15T11:31:54;96086.94;;;23.17
50206;BMP280;36098;48.390;10.856;2023-03-15T11:34:23;96090.63;;;23.16
50206;BMP280;36098;48.390;10.856;2023-03-15T11:36:51;96086.41;;;23.10
50206;BMP280;36098;48.390;10.856;2023-03-15T11:39:23;96091.22;;;22.93
50206;BMP280;36098;48.390;10.856;2023-03-15T11:41:55;96082.28;;;22.84
50206;BMP280;36098;48.390;10.856;2023-03-15T11:52:04;96076.00;;;22.80
50206;BMP280;36098;48.390;10.856;2023-03-15T11:54:29;96064.41;;;22.81
50206;BMP280;36098;48.390;10.856;2023-03-15T11:57:02;96070.97;;;22.78
50206;BMP280;36098;48.390;10.856;2023-03-15T11:59:31;96068.00;;;23.05
50206;BMP280;36098;48.390;10.856;2023-03-15T12:01:58;96061.94;;;23.04
50206;BMP280;36098;48.390;10.856;2023-03-15T12:06:52;96055.63;;;23.00
50206;BMP280;36098;48.390;10.856;2023-03-15T12:12:03;96060.69;;;22.87
50206;BMP280;36098;48.390;10.856;2023-03-15T12:14:37;96050.13;;;23.02
50206;BMP280;36098;48.390;10.856;2023-03-15T12:20:03;96029.53;;;23.14
50206;BMP280;36098;48.390;10.856;2023-03-15T12:22:37;96027.69;;;23.19
50206;BMP280;36098;48.390;10.856;2023-03-15T12:25:18;96027.59;;;23.34
50206;BMP280;36098;48.390;10.856;2023-03-15T12:27:48;96028.41;;;23.29
50206;BMP280;36098;48.390;10.856;2023-03-15T12:30:18;96024.25;;;23.14
50206;BMP280;36098;48.390;10.856;2023-03-15T12:32:46;96034.03;;;23.03
50206;BMP280;36098;48.390;10.856;2023-03-15T12:35:18;96038.53;;;23.03
50206;BMP280;36098;48.390;10.856;2023-03-15T12:37:51;96024.31;;;22.99
50206;BMP280;36098;48.390;10.856;2023-03-15T12:52:58;96026.91;;;23.19
50206;BMP280;36098;48.390;10.856;2023-03-15T12:55:26;96019.78;;;23.19
50206;BMP280;36098;48.390;10.856;2023-03-15T12:57:52;96026.63;;;23.20
50206;BMP280;36098;48.390;10.856;2023-03-15T13:00:22;96036.59;;;23.28
50206;BMP280;36098;48.390;10.856;2023-03-15T13:02:56;96026.66;;;23.15
50206;BMP280;36098;48.390;10.856;2023-03-15T13:05:24;96026.38;;;23.07
50206;BMP280;36098;48.390;10.856;2023-03-15T13:07:56;96030.63;;;23.03
50206;BMP280;36098;48.390;10.856;2023-03-15T13:10:25;96021.16;;;23.02
50206;BMP280;36098;48.390;10.856;2023-03-15T13:12:56;96033.47;;;23.06
50206;BMP280;36098;48.390;10.856;2023-03-15T13:15:27;96034.03;;;23.03
50206;BMP280;36098;48.390;10.856;2023-03-15T13:17:58;96036.41;;;23.05
50206;BMP280;36098;48.390;10.856;2023-03-15T13:20:40;96043.25;;;23.06
50206;BMP280;36098;48.390;10.856;2023-03-15T13:23:19;96042.22;;;23.02
50206;BMP280;36098;48.390;10.856;2023-03-15T13:31:09;96042.09;;;23.31
50206;BMP280;36098;48.390;10.856;2023-03-15T13:33:34;96040.06;;;23.14
50206;BMP280;36098;48.390;10.856;2023-03-15T13:36:18;96041.66;;;23.10
50206;BMP280;36098;48.390;10.856;2023-03-15T13:38:48;96043.72;;;23.23
50206;BMP280;36098;48.390;10.856;2023-03-15T13:41:18;96043.34;;;23.49
50206;BMP280;36098;48.390;10.856;2023-03-15T13:43:44;96044.91;;;23.45
50206;BMP280;36098;48.390;10.856;2023-03-15T13:46:10;96048.53;;;23.59
50206;BMP280;36098;48.390;10.856;2023-03-15T13:48:36;96046.06;;;23.34
50206;BMP280;36098;48.390;10.856;2023-03-15T13:51:03;96050.59;;;23.19
50206;BMP280;36098;48.390;10.856;2023-03-15T13:53:29;96039.31;;;23.13
50206;BMP280;36098;48.390;10.856;2023-03-15T13:55:55;96045.84;;;23.11
50206;BMP280;36098;48.390;10.856;2023-03-15T13:58:21;96044.28;;;23.15
50206;BMP280;36098;48.390;10.856;2023-03-15T14:00:47;96050.19;;;23.45
50206;BMP280;36098;48.390;10.856;2023-03-15T14:03:13;96044.72;;;23.80
50206;BMP280;36098;48.390;10.856;2023-03-15T14:05:45;96048.78;;;23.62
50206;BMP280;36098;48.390;10.856;2023-03-15T14:10:42;96047.03;;;24.58
50206;BMP280;36098;48.390;10.856;2023-03-15T14:13:20;96046.69;;;24.36
50206;BMP280;36098;48.390;10.856;2023-03-15T14:15:46;96055.03;;;23.76
50206;BMP280;36098;48.390;10.856;2023-03-15T14:18:17;96049.38;;;23.49
50206;BMP280;36098;48.390;10.856;2023-03-15T14:20:52;96057.88;;;23.36
50206;BMP280;36098;48.390;10.856;2023-03-15T14:23:20;96051.81;;;23.41
50206;BMP280;36098;48.390;10.856;2023-03-15T14:25:52;96052.78;;;23.55
50206;BMP280;36098;48.390;10.856;2023-03-15T14:28:20;96048.84;;;23.57
50206;BMP280;36098;48.390;10.856;2023-03-15T14:30:59;96050.38;;;23.63
50206;BMP280;36098;48.390;10.856;2023-03-15T14:35:53;96043.94;;;24.46
50206;BMP280;36098;48.390;10.856;2023-03-15T14:38:22;96045.25;;;24.20
50206;BMP280;36098;48.390;10.856;2023-03-15T14:40:52;96043.72;;;24.09
50206;BMP280;36098;48.390;10.856;2023-03-15T14:43:22;96042.41;;;24.12
50206;BMP280;36098;48.390;10.856;2023-03-15T14:45:48;96045.84;;;24.41
50206;BMP280;36098;48.390;10.856;2023-03-15T14:48:15;96040.56;;;24.41
50206;BMP280;36098;48.390;10.856;2023-03-15T14:50:49;96040.53;;;24.17
50206;BMP280;36098;48.390;10.856;2023-03-15T14:53:24;96046.00;;;23.87
50206;BMP280;36098;48.390;10.856;2023-03-15T14:55:52;96042.34;;;23.83
50206;BMP280;36098;48.390;10.856;2023-03-15T14:58:18;96053.25;;;23.62